Accueil
METAR-TAF:

METAR-TAF

Aéroports :

Aéroport d'Annecy Haute-Savoie Mont-Blanc

Annecy, France

latitude: 45-55-45N, longitude: 006-05-56E, altitude: 463 m

Observation

Le bulletin a été fait il y a 16 minutes, à 14:30 UTC
Vent calme
Température 7°C
Humidité 61%
Pression 1030 hPa
Visibilité 10 km ou plus
pas de nuages en-dessous de 1500 mètres et pas de cumulonimbus.

METAR: LFLP 221430Z AUTO 00000KT CAVOK 07/M00 Q1030 NOSIG

Heure: 15:46 (14:46 UTC)

Prévision

Le bulletin a été fait il y a 5 heures et 46 minutes, à 09:00 UTC
Prévision valable du 22 à 09 UTC au 23 à 09 UTC
Vent 3 kt de ouest
Visibilité: 4000 m
brume
Evoluant progressivement
du 22 à 09 UTC au 22 à 11 UTC
Visibilité: 8000 m
Probabilité 30%
du 23 à 03 UTC au 23 à 09 UTC
Visibilité: 4000 m
brume

TAF: LFLP 220900Z 2209/2309 28003KT 4000 BR NSC BECMG 2209/2211 8000 NSW PROB30 2303/2309 4000 BR

Observations et prévisions météorologiques de plus de 4000 aéroports (messages METAR et TAF).

Les stations disponibles sont représentées par des disques jaunes et rouges sur la carte.

Passer la souris dessus pour voir le nom de la station.

Cliquer dessus pour voir les observations et prévisions météorologiques.

Pour changer de carte: cliquez sur les boutons verts avec une croix noire pour zoomer, sur le bouton vert avec un tiret pour effectuer un zoom arrière, ou sur les flèches vertes pour les cartes adjacentes.


METAR-TAF: